createdAt,value
2023-02-25T19:53:15.897Z,32.57
2023-02-25T19:55:43.665Z,33.17
2023-02-25T19:58:10.033Z,33.87
2023-02-25T20:02:12.593Z,34.76
2023-02-25T20:04:39.254Z,34.73
2023-02-25T20:07:05.752Z,34.71
2023-02-25T20:09:32.161Z,35.12
2023-02-25T20:11:58.536Z,36.87
2023-02-25T20:14:27.876Z,35.11
2023-02-25T20:16:59.422Z,35.15
2023-02-25T20:19:27.887Z,36.63
2023-02-25T20:21:54.263Z,34.93
2023-02-25T20:24:20.609Z,34.82
2023-02-25T20:26:47.118Z,34.76
2023-02-25T20:29:14.240Z,34.67
2023-02-25T20:31:40.873Z,34.97
2023-02-25T20:34:12.432Z,34.86
2023-02-25T20:36:45.468Z,34.81
2023-02-25T20:39:36.420Z,34.98
2023-02-25T20:42:05.045Z,34.72
2023-02-25T20:44:31.678Z,34.89
2023-02-25T20:46:58.479Z,35.03
2023-02-25T20:49:27.693Z,34.67
2023-02-25T20:51:54.437Z,34.55
2023-02-25T20:54:21.074Z,34.83
2023-02-25T20:56:48.854Z,34.88
2023-02-25T20:59:17.009Z,34.74
2023-02-25T21:01:44.554Z,34.91
2023-02-25T21:04:11.269Z,34.64
2023-02-25T21:06:38.153Z,34.51
2023-02-25T21:09:06.024Z,34.72
2023-02-25T21:11:32.837Z,34.71
2023-02-25T21:13:59.233Z,34.72
2023-02-25T21:16:26.130Z,34.79
2023-02-25T21:18:52.946Z,34.70
2023-02-25T21:21:21.242Z,34.75
2023-02-25T21:23:49.285Z,34.71
2023-02-25T21:26:16.033Z,34.79
2023-02-25T21:28:42.458Z,34.67
2023-02-25T21:31:11.387Z,34.76
2023-02-25T21:33:39.126Z,34.45
2023-02-25T21:36:07.106Z,34.86
2023-02-25T21:38:33.623Z,34.68
2023-02-25T21:41:06.803Z,34.61
2023-02-25T21:43:33.245Z,34.75
2023-02-25T21:46:02.537Z,34.49
2023-02-25T21:48:30.453Z,34.71
2023-02-25T21:50:56.982Z,34.98
2023-02-25T21:53:23.452Z,34.81
2023-02-25T21:55:49.806Z,34.47
2023-02-25T21:58:16.217Z,34.55
2023-02-25T22:00:43.404Z,34.73
2023-02-25T22:03:10.593Z,34.78
2023-02-25T22:05:38.429Z,35.31
2023-02-25T22:08:06.377Z,35.29
2023-02-25T22:10:36.248Z,35.25
2023-02-25T22:13:02.978Z,35.48
2023-02-25T22:15:29.705Z,35.22
2023-02-25T22:17:56.120Z,33.31
2023-02-25T22:20:22.505Z,31.94
